sensor_id;sensor_type;location;lat;lon;timestamp;P1;durP1;ratioP1;P2;durP2;ratioP2
60169;SDS011;46042;49.444;6.862;2023-05-02T00:02:10;7.70;;;4.13;;
60169;SDS011;46042;49.444;6.862;2023-05-02T00:04:39;7.97;;;3.92;;
60169;SDS011;46042;49.444;6.862;2023-05-02T00:07:06;5.68;;;3.85;;
60169;SDS011;46042;49.444;6.862;2023-05-02T00:09:33;5.53;;;4.18;;
60169;SDS011;46042;49.444;6.862;2023-05-02T00:12:00;5.18;;;3.70;;
60169;SDS011;46042;49.444;6.862;2023-05-02T00:14:27;4.18;;;2.97;;
60169;SDS011;46042;49.444;6.862;2023-05-02T00:16:57;3.63;;;3.03;;
60169;SDS011;46042;49.444;6.862;2023-05-02T00:19:24;5.00;;;3.60;;
60169;SDS011;46042;49.444;6.862;2023-05-02T00:21:53;4.57;;;3.28;;
60169;SDS011;46042;49.444;6.862;2023-05-02T00:24:20;5.30;;;3.25;;
60169;SDS011;46042;49.444;6.862;2023-05-02T00:26:47;8.38;;;4.35;;
60169;SDS011;46042;49.444;6.862;2023-05-02T00:29:13;5.15;;;3.92;;
60169;SDS011;46042;49.444;6.862;2023-05-02T00:31:43;7.65;;;4.28;;
60169;SDS011;46042;49.444;6.862;2023-05-02T00:34:10;5.75;;;4.28;;
60169;SDS011;46042;49.444;6.862;2023-05-02T00:36:39;8.20;;;4.10;;
60169;SDS011;46042;49.444;6.862;2023-05-02T00:39:05;8.02;;;4.15;;
60169;SDS011;46042;49.444;6.862;2023-05-02T00:41:33;10.77;;;4.13;;
60169;SDS011;46042;49.444;6.862;2023-05-02T00:44:00;5.90;;;4.35;;
60169;SDS011;46042;49.444;6.862;2023-05-02T00:46:28;7.35;;;4.03;;
60169;SDS011;46042;49.444;6.862;2023-05-02T00:48:55;7.78;;;5.45;;
60169;SDS011;46042;49.444;6.862;2023-05-02T00:51:22;6.18;;;4.60;;
60169;SDS011;46042;49.444;6.862;2023-05-02T00:53:49;10.32;;;4.55;;
60169;SDS011;46042;49.444;6.862;2023-05-02T00:56:16;6.25;;;4.68;;
60169;SDS011;46042;49.444;6.862;2023-05-02T00:58:42;7.22;;;4.15;;
60169;SDS011;46042;49.444;6.862;2023-05-02T01:01:13;5.32;;;4.15;;
60169;SDS011;46042;49.444;6.862;2023-05-02T01:03:57;6.80;;;4.90;;
60169;SDS011;46042;49.444;6.862;2023-05-02T01:06:57;6.25;;;4.10;;
60169;SDS011;46042;49.444;6.862;2023-05-02T01:09:56;9.25;;;4.43;;
60169;SDS011;46042;49.444;6.862;2023-05-02T01:12:56;5.88;;;3.92;;
60169;SDS011;46042;49.444;6.862;2023-05-02T01:15:28;6.60;;;4.38;;
60169;SDS011;46042;49.444;6.862;2023-05-02T01:17:59;5.10;;;4.20;;
60169;SDS011;46042;49.444;6.862;2023-05-02T01:20:29;8.55;;;4.55;;
60169;SDS011;46042;49.444;6.862;2023-05-02T01:23:03;7.72;;;4.75;;
60169;SDS011;46042;49.444;6.862;2023-05-02T01:25:52;6.45;;;4.57;;
60169;SDS011;46042;49.444;6.862;2023-05-02T01:29:00;9.00;;;4.57;;
60169;SDS011;46042;49.444;6.862;2023-05-02T01:31:33;6.82;;;4.32;;
60169;SDS011;46042;49.444;6.862;2023-05-02T01:34:03;5.72;;;4.25;;
60169;SDS011;46042;49.444;6.862;2023-05-02T01:36:35;6.03;;;3.90;;
60169;SDS011;46042;49.444;6.862;2023-05-02T01:39:10;5.57;;;4.40;;
60169;SDS011;46042;49.444;6.862;2023-05-02T01:41:42;5.72;;;3.90;;
60169;SDS011;46042;49.444;6.862;2023-05-02T01:44:12;6.10;;;4.30;;
60169;SDS011;46042;49.444;6.862;2023-05-02T01:46:44;6.20;;;4.22;;
60169;SDS011;46042;49.444;6.862;2023-05-02T01:49:14;6.35;;;4.55;;
60169;SDS011;46042;49.444;6.862;2023-05-02T01:51:46;5.07;;;3.90;;
60169;SDS011;46042;49.444;6.862;2023-05-02T01:54:16;8.30;;;4.15;;
60169;SDS011;46042;49.444;6.862;2023-05-02T01:56:45;5.60;;;4.10;;
60169;SDS011;46042;49.444;6.862;2023-05-02T01:59:16;6.63;;;4.47;;
60169;SDS011;46042;49.444;6.862;2023-05-02T02:04:13;6.70;;;4.03;;
60169;SDS011;46042;49.444;6.862;2023-05-02T02:06:49;7.25;;;4.55;;
60169;SDS011;46042;49.444;6.862;2023-05-02T02:09:24;6.95;;;4.25;;
60169;SDS011;46042;49.444;6.862;2023-05-02T02:11:52;8.18;;;5.13;;
60169;SDS011;46042;49.444;6.862;2023-05-02T02:14:26;8.05;;;4.57;;
60169;SDS011;46042;49.444;6.862;2023-05-02T02:17:04;6.35;;;4.40;;
60169;SDS011;46042;49.444;6.862;2023-05-02T02:19:38;8.60;;;3.22;;
60169;SDS011;46042;49.444;6.862;2023-05-02T02:22:06;4.82;;;3.40;;
60169;SDS011;46042;49.444;6.862;2023-05-02T02:24:37;5.93;;;4.00;;
60169;SDS011;46042;49.444;6.862;2023-05-02T02:27:05;8.65;;;3.45;;
60169;SDS011;46042;49.444;6.862;2023-05-02T02:29:33;6.03;;;4.05;;
60169;SDS011;46042;49.444;6.862;2023-05-02T02:32:00;5.88;;;4.15;;
60169;SDS011;46042;49.444;6.862;2023-05-02T02:34:27;5.88;;;3.88;;
60169;SDS011;46042;49.444;6.862;2023-05-02T02:36:56;6.03;;;3.92;;
60169;SDS011;46042;49.444;6.862;2023-05-02T02:42:17;7.43;;;4.22;;
60169;SDS011;46042;49.444;6.862;2023-05-02T02:45:14;5.70;;;4.32;;
60169;SDS011;46042;49.444;6.862;2023-05-02T02:50:31;6.28;;;4.07;;
60169;SDS011;46042;49.444;6.862;2023-05-02T02:53:04;6.70;;;3.92;;
60169;SDS011;46042;49.444;6.862;2023-05-02T03:01:04;6.53;;;4.47;;
60169;SDS011;46042;49.444;6.862;2023-05-02T03:03:39;6.85;;;4.88;;
60169;SDS011;46042;49.444;6.862;2023-05-02T03:06:08;7.13;;;4.97;;
60169;SDS011;46042;49.444;6.862;2023-05-02T03:08:42;6.95;;;4.50;;
60169;SDS011;46042;49.444;6.862;2023-05-02T03:11:10;7.32;;;5.15;;
60169;SDS011;46042;49.444;6.862;2023-05-02T03:13:37;7.43;;;4.78;;
60169;SDS011;46042;49.444;6.862;2023-05-02T03:16:11;6.60;;;4.30;;
60169;SDS011;46042;49.444;6.862;2023-05-02T03:19:05;12.90;;;4.22;;
60169;SDS011;46042;49.444;6.862;2023-05-02T03:21:36;9.75;;;4.50;;
60169;SDS011;46042;49.444;6.862;2023-05-02T03:24:04;5.85;;;4.13;;
60169;SDS011;46042;49.444;6.862;2023-05-02T03:26:31;6.55;;;4.78;;
60169;SDS011;46042;49.444;6.862;2023-05-02T03:28:58;7.45;;;4.47;;
60169;SDS011;46042;49.444;6.862;2023-05-02T03:31:24;8.77;;;4.30;;
60169;SDS011;46042;49.444;6.862;2023-05-02T03:33:52;10.32;;;4.72;;
60169;SDS011;46042;49.444;6.862;2023-05-02T03:36:19;16.85;;;5.15;;
60169;SDS011;46042;49.444;6.862;2023-05-02T03:38:46;8.80;;;5.40;;
60169;SDS011;46042;49.444;6.862;2023-05-02T03:41:13;6.60;;;4.90;;
60169;SDS011;46042;49.444;6.862;2023-05-02T03:43:39;8.32;;;4.75;;
60169;SDS011;46042;49.444;6.862;2023-05-02T03:46:07;9.60;;;5.70;;
60169;SDS011;46042;49.444;6.862;2023-05-02T03:48:34;7.95;;;5.80;;
60169;SDS011;46042;49.444;6.862;2023-05-02T03:51:02;8.98;;;5.80;;
60169;SDS011;46042;49.444;6.862;2023-05-02T03:53:30;7.13;;;5.22;;
60169;SDS011;46042;49.444;6.862;2023-05-02T03:55:57;9.20;;;5.78;;
60169;SDS011;46042;49.444;6.862;2023-05-02T03:58:24;8.48;;;5.68;;
60169;SDS011;46042;49.444;6.862;2023-05-02T04:00:52;6.63;;;4.68;;
60169;SDS011;46042;49.444;6.862;2023-05-02T04:03:20;6.90;;;5.22;;
60169;SDS011;46042;49.444;6.862;2023-05-02T04:05:47;7.95;;;4.70;;
60169;SDS011;46042;49.444;6.862;2023-05-02T04:08:14;8.82;;;5.30;;
60169;SDS011;46042;49.444;6.862;2023-05-02T04:10:42;8.38;;;4.45;;
60169;SDS011;46042;49.444;6.862;2023-05-02T04:13:08;18.90;;;5.82;;
60169;SDS011;46042;49.444;6.862;2023-05-02T04:15:35;8.13;;;5.28;;
60169;SDS011;46042;49.444;6.862;2023-05-02T04:18:03;9.65;;;5.10;;
60169;SDS011;46042;49.444;6.862;2023-05-02T04:20:29;8.90;;;5.45;;
60169;SDS011;46042;49.444;6.862;2023-05-02T04:22:58;6.07;;;4.25;;
60169;SDS011;46042;49.444;6.862;2023-05-02T04:25:26;6.72;;;4.65;;
60169;SDS011;46042;49.444;6.862;2023-05-02T04:27:53;8.38;;;4.93;;
60169;SDS011;46042;49.444;6.862;2023-05-02T04:30:20;6.38;;;4.20;;
60169;SDS011;46042;49.444;6.862;2023-05-02T04:32:47;7.63;;;5.30;;
60169;SDS011;46042;49.444;6.862;2023-05-02T04:35:14;8.07;;;4.80;;
60169;SDS011;46042;49.444;6.862;2023-05-02T04:37:41;7.95;;;5.00;;
60169;SDS011;46042;49.444;6.862;2023-05-02T04:40:09;8.25;;;5.13;;
60169;SDS011;46042;49.444;6.862;2023-05-02T04:42:36;8.07;;;5.30;;
60169;SDS011;46042;49.444;6.862;2023-05-02T04:45:03;9.65;;;4.88;;
60169;SDS011;46042;49.444;6.862;2023-05-02T04:47:30;10.68;;;6.03;;
60169;SDS011;46042;49.444;6.862;2023-05-02T04:49:57;10.93;;;7.03;;
60169;SDS011;46042;49.444;6.862;2023-05-02T04:52:24;8.25;;;5.32;;
60169;SDS011;46042;49.444;6.862;2023-05-02T04:54:52;11.15;;;7.05;;
60169;SDS011;46042;49.444;6.862;2023-05-02T04:57:19;13.77;;;8.07;;
60169;SDS011;46042;49.444;6.862;2023-05-02T04:59:48;9.20;;;5.93;;
60169;SDS011;46042;49.444;6.862;2023-05-02T05:02:18;8.32;;;4.97;;
60169;SDS011;46042;49.444;6.862;2023-05-02T05:04:45;9.57;;;5.00;;
60169;SDS011;46042;49.444;6.862;2023-05-02T05:07:12;8.45;;;4.82;;
60169;SDS011;46042;49.444;6.862;2023-05-02T05:09:39;8.68;;;5.00;;
60169;SDS011;46042;49.444;6.862;2023-05-02T05:12:05;9.10;;;4.95;;
60169;SDS011;46042;49.444;6.862;2023-05-02T05:14:34;8.98;;;5.60;;
60169;SDS011;46042;49.444;6.862;2023-05-02T05:17:01;7.63;;;4.45;;
60169;SDS011;46042;49.444;6.862;2023-05-02T05:19:30;14.68;;;6.28;;
60169;SDS011;46042;49.444;6.862;2023-05-02T05:21:58;9.02;;;6.00;;
60169;SDS011;46042;49.444;6.862;2023-05-02T05:24:24;10.20;;;6.05;;
60169;SDS011;46042;49.444;6.862;2023-05-02T05:26:51;12.55;;;7.70;;
60169;SDS011;46042;49.444;6.862;2023-05-02T05:29:20;11.13;;;7.50;;
60169;SDS011;46042;49.444;6.862;2023-05-02T05:31:49;9.13;;;6.63;;
60169;SDS011;46042;49.444;6.862;2023-05-02T05:34:16;9.70;;;5.90;;
60169;SDS011;46042;49.444;6.862;2023-05-02T05:36:45;8.38;;;5.47;;
60169;SDS011;46042;49.444;6.862;2023-05-02T05:39:12;11.32;;;6.78;;
60169;SDS011;46042;49.444;6.862;2023-05-02T05:41:39;12.55;;;7.82;;
60169;SDS011;46042;49.444;6.862;2023-05-02T05:44:05;14.80;;;7.20;;
60169;SDS011;46042;49.444;6.862;2023-05-02T05:46:33;10.60;;;7.03;;
60169;SDS011;46042;49.444;6.862;2023-05-02T05:49:00;13.10;;;7.13;;
60169;SDS011;46042;49.444;6.862;2023-05-02T05:51:27;11.02;;;7.10;;
60169;SDS011;46042;49.444;6.862;2023-05-02T05:53:54;22.50;;;7.20;;
60169;SDS011;46042;49.444;6.862;2023-05-02T05:56:20;11.98;;;7.88;;
60169;SDS011;46042;49.444;6.862;2023-05-02T05:58:48;10.73;;;6.80;;
60169;SDS011;46042;49.444;6.862;2023-05-02T06:01:17;10.75;;;7.00;;
60169;SDS011;46042;49.444;6.862;2023-05-02T06:03:45;8.40;;;6.30;;
60169;SDS011;46042;49.444;6.862;2023-05-02T06:06:12;18.02;;;7.13;;
60169;SDS011;46042;49.444;6.862;2023-05-02T06:08:39;11.93;;;7.45;;
60169;SDS011;46042;49.444;6.862;2023-05-02T06:11:07;10.65;;;6.97;;
60169;SDS011;46042;49.444;6.862;2023-05-02T06:13:39;12.20;;;8.02;;
60169;SDS011;46042;49.444;6.862;2023-05-02T06:16:07;12.13;;;8.35;;
60169;SDS011;46042;49.444;6.862;2023-05-02T06:18:36;16.63;;;7.72;;
60169;SDS011;46042;49.444;6.862;2023-05-02T06:21:03;14.15;;;8.57;;
60169;SDS011;46042;49.444;6.862;2023-05-02T06:23:31;10.90;;;7.55;;
60169;SDS011;46042;49.444;6.862;2023-05-02T06:25:59;12.70;;;7.88;;
60169;SDS011;46042;49.444;6.862;2023-05-02T06:28:28;16.75;;;9.77;;
60169;SDS011;46042;49.444;6.862;2023-05-02T06:31:02;13.38;;;8.32;;
60169;SDS011;46042;49.444;6.862;2023-05-02T06:33:31;12.35;;;8.40;;
60169;SDS011;46042;49.444;6.862;2023-05-02T06:35:59;16.27;;;10.27;;
60169;SDS011;46042;49.444;6.862;2023-05-02T06:38:27;16.63;;;10.27;;
60169;SDS011;46042;49.444;6.862;2023-05-02T06:40:54;18.10;;;11.13;;
60169;SDS011;46042;49.444;6.862;2023-05-02T06:43:22;28.35;;;13.70;;
60169;SDS011;46042;49.444;6.862;2023-05-02T06:45:51;25.83;;;13.52;;
60169;SDS011;46042;49.444;6.862;2023-05-02T06:48:21;21.02;;;12.23;;
60169;SDS011;46042;49.444;6.862;2023-05-02T06:50:50;20.73;;;12.15;;
60169;SDS011;46042;49.444;6.862;2023-05-02T06:53:17;24.63;;;13.88;;
60169;SDS011;46042;49.444;6.862;2023-05-02T06:55:43;26.05;;;13.63;;
60169;SDS011;46042;49.444;6.862;2023-05-02T06:58:12;27.98;;;12.30;;
60169;SDS011;46042;49.444;6.862;2023-05-02T07:00:39;20.98;;;11.70;;
60169;SDS011;46042;49.444;6.862;2023-05-02T07:03:06;18.30;;;10.95;;
60169;SDS011;46042;49.444;6.862;2023-05-02T07:05:33;17.63;;;10.10;;
60169;SDS011;46042;49.444;6.862;2023-05-02T07:08:01;16.48;;;9.98;;
60169;SDS011;46042;49.444;6.862;2023-05-02T07:10:28;15.27;;;9.15;;
60169;SDS011;46042;49.444;6.862;2023-05-02T07:12:55;15.35;;;9.27;;
60169;SDS011;46042;49.444;6.862;2023-05-02T07:15:22;16.23;;;9.05;;
60169;SDS011;46042;49.444;6.862;2023-05-02T07:17:49;15.45;;;9.20;;
60169;SDS011;46042;49.444;6.862;2023-05-02T07:20:16;13.45;;;8.05;;
60169;SDS011;46042;49.444;6.862;2023-05-02T07:22:43;15.55;;;8.18;;
60169;SDS011;46042;49.444;6.862;2023-05-02T07:25:09;15.38;;;8.73;;
60169;SDS011;46042;49.444;6.862;2023-05-02T07:27:36;13.82;;;8.18;;
60169;SDS011;46042;49.444;6.862;2023-05-02T07:30:03;12.23;;;7.53;;
60169;SDS011;46042;49.444;6.862;2023-05-02T07:32:32;15.18;;;7.82;;
60169;SDS011;46042;49.444;6.862;2023-05-02T07:34:59;13.77;;;8.70;;
60169;SDS011;46042;49.444;6.862;2023-05-02T07:37:30;15.02;;;8.05;;
60169;SDS011;46042;49.444;6.862;2023-05-02T07:40:00;19.15;;;8.55;;
60169;SDS011;46042;49.444;6.862;2023-05-02T07:42:28;18.17;;;8.80;;
60169;SDS011;46042;49.444;6.862;2023-05-02T07:44:57;13.10;;;8.15;;
60169;SDS011;46042;49.444;6.862;2023-05-02T07:47:25;16.42;;;8.32;;
60169;SDS011;46042;49.444;6.862;2023-05-02T07:49:53;14.25;;;7.95;;
60169;SDS011;46042;49.444;6.862;2023-05-02T07:52:23;14.13;;;8.43;;
60169;SDS011;46042;49.444;6.862;2023-05-02T07:54:50;15.73;;;9.05;;
60169;SDS011;46042;49.444;6.862;2023-05-02T07:57:17;12.40;;;8.13;;
60169;SDS011;46042;49.444;6.862;2023-05-02T07:59:44;14.93;;;8.15;;
60169;SDS011;46042;49.444;6.862;2023-05-02T08:02:11;17.80;;;7.35;;
60169;SDS011;46042;49.444;6.862;2023-05-02T08:04:39;11.52;;;7.03;;
60169;SDS011;46042;49.444;6.862;2023-05-02T08:07:08;14.75;;;7.70;;
60169;SDS011;46042;49.444;6.862;2023-05-02T08:09:35;12.13;;;7.63;;
60169;SDS011;46042;49.444;6.862;2023-05-02T08:12:04;14.60;;;7.68;;
60169;SDS011;46042;49.444;6.862;2023-05-02T08:14:32;12.77;;;8.32;;
60169;SDS011;46042;49.444;6.862;2023-05-02T08:16:59;13.23;;;7.72;;
60169;SDS011;46042;49.444;6.862;2023-05-02T08:19:26;16.05;;;7.68;;
60169;SDS011;46042;49.444;6.862;2023-05-02T08:21:53;20.25;;;7.20;;
60169;SDS011;46042;49.444;6.862;2023-05-02T08:24:20;12.35;;;6.90;;
60169;SDS011;46042;49.444;6.862;2023-05-02T08:26:48;14.98;;;7.05;;
60169;SDS011;46042;49.444;6.862;2023-05-02T08:29:17;11.07;;;6.30;;
60169;SDS011;46042;49.444;6.862;2023-05-02T08:31:43;9.00;;;5.63;;
60169;SDS011;46042;49.444;6.862;2023-05-02T08:34:10;15.52;;;6.32;;
60169;SDS011;46042;49.444;6.862;2023-05-02T08:36:39;11.32;;;6.60;;
60169;SDS011;46042;49.444;6.862;2023-05-02T08:39:07;10.18;;;5.53;;
60169;SDS011;46042;49.444;6.862;2023-05-02T08:41:34;11.55;;;6.72;;
60169;SDS011;46042;49.444;6.862;2023-05-02T08:44:04;11.63;;;6.25;;
60169;SDS011;46042;49.444;6.862;2023-05-02T08:46:34;11.60;;;6.30;;
60169;SDS011;46042;49.444;6.862;2023-05-02T08:49:02;11.65;;;7.13;;
60169;SDS011;46042;49.444;6.862;2023-05-02T08:51:29;14.52;;;6.75;;
60169;SDS011;46042;49.444;6.862;2023-05-02T08:54:00;12.13;;;6.10;;
60169;SDS011;46042;49.444;6.862;2023-05-02T08:56:28;10.05;;;6.63;;
60169;SDS011;46042;49.444;6.862;2023-05-02T08:58:55;8.65;;;5.55;;
60169;SDS011;46042;49.444;6.862;2023-05-02T09:01:26;7.70;;;4.68;;
60169;SDS011;46042;49.444;6.862;2023-05-02T09:03:56;10.27;;;5.75;;
60169;SDS011;46042;49.444;6.862;2023-05-02T09:06:24;11.30;;;6.50;;
60169;SDS011;46042;49.444;6.862;2023-05-02T09:08:52;10.15;;;5.93;;
60169;SDS011;46042;49.444;6.862;2023-05-02T09:11:19;7.30;;;4.50;;
60169;SDS011;46042;49.444;6.862;2023-05-02T09:13:48;9.27;;;5.07;;
60169;SDS011;46042;49.444;6.862;2023-05-02T09:16:20;6.75;;;4.57;;
60169;SDS011;46042;49.444;6.862;2023-05-02T09:18:49;8.68;;;4.38;;
60169;SDS011;46042;49.444;6.862;2023-05-02T09:21:18;7.07;;;3.70;;
60169;SDS011;46042;49.444;6.862;2023-05-02T09:23:50;6.68;;;3.72;;
60169;SDS011;46042;49.444;6.862;2023-05-02T09:26:23;7.00;;;4.32;;
60169;SDS011;46042;49.444;6.862;2023-05-02T09:28:58;7.18;;;4.40;;
60169;SDS011;46042;49.444;6.862;2023-05-02T09:31:28;6.80;;;3.78;;
60169;SDS011;46042;49.444;6.862;2023-05-02T09:34:21;7.82;;;4.53;;
60169;SDS011;46042;49.444;6.862;2023-05-02T09:36:48;5.72;;;3.70;;
60169;SDS011;46042;49.444;6.862;2023-05-02T09:39:23;12.18;;;4.10;;
60169;SDS011;46042;49.444;6.862;2023-05-02T09:41:51;6.22;;;3.78;;
60169;SDS011;46042;49.444;6.862;2023-05-02T09:44:20;6.55;;;3.70;;
60169;SDS011;46042;49.444;6.862;2023-05-02T09:49:18;18.25;;;4.35;;
60169;SDS011;46042;49.444;6.862;2023-05-02T09:51:46;6.10;;;3.63;;
60169;SDS011;46042;49.444;6.862;2023-05-02T09:54:13;9.65;;;4.28;;
60169;SDS011;46042;49.444;6.862;2023-05-02T09:57:03;6.90;;;4.30;;
60169;SDS011;46042;49.444;6.862;2023-05-02T09:59:32;10.82;;;4.60;;
60169;SDS011;46042;49.444;6.862;2023-05-02T10:02:00;8.05;;;5.00;;
60169;SDS011;46042;49.444;6.862;2023-05-02T10:04:30;7.45;;;4.97;;
60169;SDS011;46042;49.444;6.862;2023-05-02T10:06:58;7.28;;;4.40;;
60169;SDS011;46042;49.444;6.862;2023-05-02T10:09:25;7.55;;;4.90;;
60169;SDS011;46042;49.444;6.862;2023-05-02T10:11:59;9.18;;;4.75;;
60169;SDS011;46042;49.444;6.862;2023-05-02T10:14:30;6.57;;;3.90;;
60169;SDS011;46042;49.444;6.862;2023-05-02T10:17:11;6.63;;;3.97;;
60169;SDS011;46042;49.444;6.862;2023-05-02T10:22:19;7.32;;;3.72;;
60169;SDS011;46042;49.444;6.862;2023-05-02T10:24:49;5.88;;;3.75;;
60169;SDS011;46042;49.444;6.862;2023-05-02T10:27:18;5.80;;;3.67;;
60169;SDS011;46042;49.444;6.862;2023-05-02T10:29:45;5.13;;;3.17;;
60169;SDS011;46042;49.444;6.862;2023-05-02T10:32:13;5.53;;;3.15;;
60169;SDS011;46042;49.444;6.862;2023-05-02T10:34:43;6.30;;;3.30;;
60169;SDS011;46042;49.444;6.862;2023-05-02T10:37:10;10.75;;;3.50;;
60169;SDS011;46042;49.444;6.862;2023-05-02T10:39:38;6.60;;;4.13;;
60169;SDS011;46042;49.444;6.862;2023-05-02T10:42:05;6.80;;;3.78;;
60169;SDS011;46042;49.444;6.862;2023-05-02T10:52:41;5.60;;;3.30;;
60169;SDS011;46042;49.444;6.862;2023-05-02T11:00:31;6.78;;;3.03;;
60169;SDS011;46042;49.444;6.862;2023-05-02T11:02:59;5.40;;;3.35;;
60169;SDS011;46042;49.444;6.862;2023-05-02T11:05:30;4.18;;;3.10;;
60169;SDS011;46042;49.444;6.862;2023-05-02T11:10:43;5.15;;;3.15;;
60169;SDS011;46042;49.444;6.862;2023-05-02T11:13:11;5.78;;;3.03;;
60169;SDS011;46042;49.444;6.862;2023-05-02T11:18:07;6.40;;;3.35;;
60169;SDS011;46042;49.444;6.862;2023-05-02T11:20:40;5.70;;;3.30;;
60169;SDS011;46042;49.444;6.862;2023-05-02T11:23:30;4.68;;;3.00;;
60169;SDS011;46042;49.444;6.862;2023-05-02T11:25:55;7.75;;;3.40;;
60169;SDS011;46042;49.444;6.862;2023-05-02T11:28:39;4.97;;;3.43;;
60169;SDS011;46042;49.444;6.862;2023-05-02T11:33:59;6.43;;;3.60;;
60169;SDS011;46042;49.444;6.862;2023-05-02T11:36:32;4.43;;;3.25;;
60169;SDS011;46042;49.444;6.862;2023-05-02T11:39:01;6.03;;;3.70;;
60169;SDS011;46042;49.444;6.862;2023-05-02T11:41:40;5.70;;;3.80;;
60169;SDS011;46042;49.444;6.862;2023-05-02T11:44:09;5.35;;;3.85;;
60169;SDS011;46042;49.444;6.862;2023-05-02T11:46:38;5.95;;;3.45;;
60169;SDS011;46042;49.444;6.862;2023-05-02T11:49:09;4.53;;;3.35;;
60169;SDS011;46042;49.444;6.862;2023-05-02T11:51:40;6.13;;;3.35;;
60169;SDS011;46042;49.444;6.862;2023-05-02T11:54:09;6.28;;;3.25;;
60169;SDS011;46042;49.444;6.862;2023-05-02T11:56:48;4.93;;;3.05;;
60169;SDS011;46042;49.444;6.862;2023-05-02T11:59:14;7.60;;;3.40;;
60169;SDS011;46042;49.444;6.862;2023-05-02T12:01:47;5.57;;;3.50;;
60169;SDS011;46042;49.444;6.862;2023-05-02T12:04:16;6.35;;;3.40;;
60169;SDS011;46042;49.444;6.862;2023-05-02T12:06:57;4.32;;;3.22;;
60169;SDS011;46042;49.444;6.862;2023-05-02T12:09:24;4.20;;;2.83;;
60169;SDS011;46042;49.444;6.862;2023-05-02T12:11:51;9.10;;;3.17;;
60169;SDS011;46042;49.444;6.862;2023-05-02T12:14:28;4.63;;;3.17;;
60169;SDS011;46042;49.444;6.862;2023-05-02T12:17:00;4.22;;;2.92;;
60169;SDS011;46042;49.444;6.862;2023-05-02T12:19:29;4.75;;;3.10;;
60169;SDS011;46042;49.444;6.862;2023-05-02T12:21:56;7.82;;;3.53;;
60169;SDS011;46042;49.444;6.862;2023-05-02T12:24:23;6.15;;;3.15;;
60169;SDS011;46042;49.444;6.862;2023-05-02T12:27:07;4.43;;;3.05;;
60169;SDS011;46042;49.444;6.862;2023-05-02T12:29:47;4.10;;;3.15;;
60169;SDS011;46042;49.444;6.862;2023-05-02T12:32:14;5.40;;;3.30;;
60169;SDS011;46042;49.444;6.862;2023-05-02T12:34:53;5.03;;;3.30;;
60169;SDS011;46042;49.444;6.862;2023-05-02T12:37:23;5.65;;;3.60;;
60169;SDS011;46042;49.444;6.862;2023-05-02T12:39:52;6.65;;;3.90;;
60169;SDS011;46042;49.444;6.862;2023-05-02T12:42:24;4.60;;;3.25;;
60169;SDS011;46042;49.444;6.862;2023-05-02T12:44:52;5.68;;;3.33;;
60169;SDS011;46042;49.444;6.862;2023-05-02T12:47:19;4.43;;;3.13;;
60169;SDS011;46042;49.444;6.862;2023-05-02T12:49:51;4.13;;;3.08;;
60169;SDS011;46042;49.444;6.862;2023-05-02T12:52:19;3.85;;;3.13;;
60169;SDS011;46042;49.444;6.862;2023-05-02T12:54:48;4.75;;;3.45;;
60169;SDS011;46042;49.444;6.862;2023-05-02T12:57:25;3.95;;;3.20;;
60169;SDS011;46042;49.444;6.862;2023-05-02T12:59:52;3.97;;;3.05;;
60169;SDS011;46042;49.444;6.862;2023-05-02T13:02:22;3.10;;;2.80;;
60169;SDS011;46042;49.444;6.862;2023-05-02T13:04:49;5.00;;;2.83;;
60169;SDS011;46042;49.444;6.862;2023-05-02T13:07:17;4.82;;;3.05;;
60169;SDS011;46042;49.444;6.862;2023-05-02T13:09:46;6.65;;;3.83;;
60169;SDS011;46042;49.444;6.862;2023-05-02T13:12:15;5.63;;;3.03;;
60169;SDS011;46042;49.444;6.862;2023-05-02T13:14:41;3.90;;;3.10;;
60169;SDS011;46042;49.444;6.862;2023-05-02T13:17:09;4.03;;;2.83;;
60169;SDS011;46042;49.444;6.862;2023-05-02T13:19:37;5.40;;;2.92;;
60169;SDS011;46042;49.444;6.862;2023-05-02T13:22:12;4.70;;;3.00;;
60169;SDS011;46042;49.444;6.862;2023-05-02T13:24:39;3.75;;;2.80;;
60169;SDS011;46042;49.444;6.862;2023-05-02T13:27:06;5.03;;;2.60;;
60169;SDS011;46042;49.444;6.862;2023-05-02T13:29:34;7.30;;;2.90;;
60169;SDS011;46042;49.444;6.862;2023-05-02T13:32:01;3.45;;;2.63;;
60169;SDS011;46042;49.444;6.862;2023-05-02T13:34:28;3.85;;;2.50;;
60169;SDS011;46042;49.444;6.862;2023-05-02T13:36:55;3.05;;;2.50;;
60169;SDS011;46042;49.444;6.862;2023-05-02T13:39:22;3.63;;;2.45;;
60169;SDS011;46042;49.444;6.862;2023-05-02T13:41:49;3.55;;;2.65;;
60169;SDS011;46042;49.444;6.862;2023-05-02T13:44:16;2.92;;;2.40;;
60169;SDS011;46042;49.444;6.862;2023-05-02T13:46:44;2.35;;;1.95;;
60169;SDS011;46042;49.444;6.862;2023-05-02T13:49:11;4.53;;;2.28;;
60169;SDS011;46042;49.444;6.862;2023-05-02T13:51:38;3.10;;;2.40;;
60169;SDS011;46042;49.444;6.862;2023-05-02T13:54:06;3.33;;;2.60;;
60169;SDS011;46042;49.444;6.862;2023-05-02T13:56:33;3.08;;;2.30;;
60169;SDS011;46042;49.444;6.862;2023-05-02T13:59:00;2.60;;;2.17;;
60169;SDS011;46042;49.444;6.862;2023-05-02T14:01:27;2.60;;;2.00;;
60169;SDS011;46042;49.444;6.862;2023-05-02T14:03:56;2.63;;;2.08;;
60169;SDS011;46042;49.444;6.862;2023-05-02T14:06:24;3.03;;;2.10;;
60169;SDS011;46042;49.444;6.862;2023-05-02T14:08:51;3.38;;;1.83;;
60169;SDS011;46042;49.444;6.862;2023-05-02T14:11:19;3.20;;;2.00;;
60169;SDS011;46042;49.444;6.862;2023-05-02T14:13:47;2.85;;;2.10;;
60169;SDS011;46042;49.444;6.862;2023-05-02T14:16:14;3.10;;;2.03;;
60169;SDS011;46042;49.444;6.862;2023-05-02T14:18:41;3.38;;;1.90;;
60169;SDS011;46042;49.444;6.862;2023-05-02T14:21:08;2.25;;;1.90;;
60169;SDS011;46042;49.444;6.862;2023-05-02T14:23:35;2.08;;;1.88;;
60169;SDS011;46042;49.444;6.862;2023-05-02T14:26:02;5.53;;;1.80;;
60169;SDS011;46042;49.444;6.862;2023-05-02T14:28:29;4.18;;;2.20;;
60169;SDS011;46042;49.444;6.862;2023-05-02T14:30:58;2.03;;;1.80;;
60169;SDS011;46042;49.444;6.862;2023-05-02T14:33:25;2.13;;;1.70;;
60169;SDS011;46042;49.444;6.862;2023-05-02T14:35:52;3.50;;;1.63;;
60169;SDS011;46042;49.444;6.862;2023-05-02T14:38:20;5.43;;;1.75;;
60169;SDS011;46042;49.444;6.862;2023-05-02T14:40:47;1.50;;;1.40;;
60169;SDS011;46042;49.444;6.862;2023-05-02T14:43:14;2.33;;;1.73;;
60169;SDS011;46042;49.444;6.862;2023-05-02T14:45:41;1.50;;;1.40;;
60169;SDS011;46042;49.444;6.862;2023-05-02T14:48:07;1.60;;;1.50;;
60169;SDS011;46042;49.444;6.862;2023-05-02T14:50:36;1.52;;;1.42;;
60169;SDS011;46042;49.444;6.862;2023-05-02T14:53:05;1.45;;;1.35;;
60169;SDS011;46042;49.444;6.862;2023-05-02T14:55:37;1.75;;;1.30;;
60169;SDS011;46042;49.444;6.862;2023-05-02T14:58:04;24.02;;;6.75;;
60169;SDS011;46042;49.444;6.862;2023-05-02T15:00:34;7.85;;;2.47;;
60169;SDS011;46042;49.444;6.862;2023-05-02T15:03:03;2.38;;;1.70;;
60169;SDS011;46042;49.444;6.862;2023-05-02T15:05:34;1.55;;;1.33;;
60169;SDS011;46042;49.444;6.862;2023-05-02T15:08:02;2.05;;;1.10;;
60169;SDS011;46042;49.444;6.862;2023-05-02T15:10:36;2.15;;;1.30;;
60169;SDS011;46042;49.444;6.862;2023-05-02T15:13:04;1.90;;;1.40;;
60169;SDS011;46042;49.444;6.862;2023-05-02T15:15:31;4.97;;;2.42;;
60169;SDS011;46042;49.444;6.862;2023-05-02T15:17:58;5.68;;;2.15;;
60169;SDS011;46042;49.444;6.862;2023-05-02T15:20:25;11.25;;;4.30;;
60169;SDS011;46042;49.444;6.862;2023-05-02T15:22:52;11.95;;;3.90;;
60169;SDS011;46042;49.444;6.862;2023-05-02T15:25:20;20.00;;;7.00;;
60169;SDS011;46042;49.444;6.862;2023-05-02T15:27:48;8.43;;;2.97;;
60169;SDS011;46042;49.444;6.862;2023-05-02T15:30:15;15.00;;;5.53;;
60169;SDS011;46042;49.444;6.862;2023-05-02T15:32:43;5.47;;;2.42;;
60169;SDS011;46042;49.444;6.862;2023-05-02T15:35:10;9.95;;;3.40;;
60169;SDS011;46042;49.444;6.862;2023-05-02T15:37:38;1.52;;;1.10;;